Time;durP1;ratioP1;P1;durP2;ratioP2;P2;SDS_P1;SDS_P2;PMS_P1;PMS_P2;Temp;Humidity;BMP_temperature;BMP_pressure;BME280_temperature;BME280_humidity;BME280_pressure;Samples;Min_cycle;Max_cycle;Signal;HPM_P1;HPM_P2
2021/06/25 00:01:02;;;;;;;9.70;4.93;;;;;;;-144.99;73.18;52309.50;5091925;28;20304;-59
2021/06/25 00:03:28;;;;;;;7.93;5.00;;;;;;;-144.99;73.54;52309.50;5092266;28;20215;-59
2021/06/25 00:05:56;;;;;;;5.90;3.87;;;;;;;-144.99;73.69;52333.94;5092199;28;20585;-57
2021/06/25 00:08:22;;;;;;;8.10;4.47;;;;;;;-144.99;73.82;52309.50;5091707;28;20652;-58
2021/06/25 00:10:50;;;;;;;6.80;4.43;;;;;;;-144.99;74.09;52301.34;5091474;28;20236;-57
2021/06/25 00:13:17;;;;;;;7.83;5.37;;;;;;;-144.99;74.43;52338.03;5091904;28;20212;-58
2021/06/25 00:15:45;;;;;;;7.60;5.50;;;;;;;-144.99;74.44;52276.88;5091471;28;20233;-58
2021/06/25 00:18:11;;;;;;;6.03;4.93;;;;;;;-144.99;74.65;52309.50;5090660;28;20905;-58
2021/06/25 00:20:38;;;;;;;7.13;4.67;;;;;;;-144.99;74.83;52283.00;5087312;28;20241;-58
2021/06/25 00:23:04;;;;;;;9.77;4.23;;;;;;;-144.99;75.08;52313.56;5091661;28;20211;-58
2021/06/25 00:25:32;;;;;;;9.90;5.23;;;;;;;-144.99;75.04;52305.41;5091337;28;20547;-58
2021/06/25 00:27:58;;;;;;;7.10;5.90;;;;;;;-144.99;75.24;52323.75;5091474;28;20262;-57
2021/06/25 00:30:25;;;;;;;8.83;6.57;;;;;;;-144.99;75.31;52321.72;5091973;28;20197;-59
2021/06/25 00:32:53;;;;;;;8.40;6.10;;;;;;;-144.99;75.41;52309.50;5091389;28;20416;-58
2021/06/25 00:35:20;;;;;;;10.10;4.97;;;;;;;-144.99;75.48;52297.25;5091098;28;20255;-58
2021/06/25 00:37:46;;;;;;;10.63;7.00;;;;;;;-144.99;75.74;52376.75;5091369;28;20298;-58
2021/06/25 00:40:14;;;;;;;10.63;6.27;;;;;;;-144.99;75.95;52327.84;5091201;28;20230;-58
2021/06/25 00:42:41;;;;;;;7.17;5.60;;;;;;;-144.99;76.29;52329.88;5091559;28;20222;-58
2021/06/25 00:45:12;;;;;;;6.37;4.67;;;;;;;-144.99;76.65;52323.75;5091881;28;20204;-59
2021/06/25 00:47:40;;;;;;;7.20;5.30;;;;;;;-144.99;76.94;52338.03;5090770;28;20207;-59
2021/06/25 00:50:09;;;;;;;9.13;4.73;;;;;;;-144.99;77.08;52268.72;5090615;28;20238;-59
2021/06/25 00:52:35;;;;;;;9.20;6.20;;;;;;;-144.99;77.23;52329.88;5090611;28;20547;-59
2021/06/25 00:55:03;;;;;;;9.20;5.37;;;;;;;-144.99;77.48;52325.81;5091069;28;20238;-59
2021/06/25 00:57:30;;;;;;;11.20;6.17;;;;;;;-144.99;77.66;52309.50;5091023;28;20208;-59
2021/06/25 00:59:56;;;;;;;7.40;5.37;;;;;;;-144.99;77.76;52378.78;5090144;28;20228;-59
2021/06/25 01:02:23;;;;;;;7.87;5.90;;;;;;;-144.99;77.90;52313.56;5090540;28;20235;-59
2021/06/25 01:04:51;;;;;;;11.17;6.27;;;;;;;-144.99;78.31;52342.09;5090557;28;20558;-59
2021/06/25 01:07:19;;;;;;;8.37;5.93;;;;;;;-144.99;78.57;52305.41;5090507;28;20212;-59
2021/06/25 01:09:46;;;;;;;8.43;5.53;;;;;;;-144.99;78.38;52342.09;5090360;28;20224;-58
2021/06/25 01:12:13;;;;;;;11.20;5.87;;;;;;;-144.99;78.59;52321.72;5083877;28;20565;-59
2021/06/25 01:14:40;;;;;;;9.03;6.20;;;;;;;-144.99;78.51;52309.50;5090052;28;20208;-59
2021/06/25 01:17:07;;;;;;;7.13;5.17;;;;;;;-144.99;78.73;52350.25;5089760;28;20196;-59
2021/06/25 01:19:34;;;;;;;7.37;4.57;;;;;;;-144.99;78.96;52313.56;5089993;28;20705;-59
2021/06/25 01:22:03;;;;;;;8.73;5.77;;;;;;;-144.99;78.68;52268.72;5084699;28;20203;-59
2021/06/25 01:24:29;;;;;;;8.03;6.37;;;;;;;-144.99;78.76;52327.84;5089009;28;20211;-59
2021/06/25 01:26:56;;;;;;;8.03;6.03;;;;;;;-144.99;78.71;52264.66;5091114;28;20280;-59
2021/06/25 01:29:23;;;;;;;8.37;6.13;;;;;;;-144.99;79.07;52309.50;5090182;28;20311;-58
2021/06/25 01:31:51;;;;;;;10.87;5.67;;;;;;;-144.99;78.95;52313.56;5090090;28;20212;-59
2021/06/25 01:34:17;;;;;;;8.67;5.67;;;;;;;-144.99;78.98;52323.75;5089555;28;20670;-58
2021/06/25 01:36:45;;;;;;;7.70;6.20;;;;;;;-144.99;79.23;52291.16;5089868;28;20227;-59
2021/06/25 01:39:14;;;;;;;9.30;6.50;;;;;;;-144.99;79.55;52321.72;5089205;28;20232;-59
2021/06/25 01:41:41;;;;;;;9.50;6.97;;;;;;;-144.99;79.90;52278.91;5089955;28;20204;-58
2021/06/25 01:44:09;;;;;;;9.43;5.40;;;;;;;-144.99;80.14;52333.94;5089260;28;20278;-59
2021/06/25 01:46:35;;;;;;;10.83;5.50;;;;;;;-144.99;80.20;52289.13;5089830;28;20217;-58
2021/06/25 01:49:02;;;;;;;10.93;6.57;;;;;;;-144.99;80.29;52329.88;5089725;28;20593;-58
2021/06/25 01:51:29;;;;;;;8.37;6.07;;;;;;;-144.99;80.55;52297.25;5089306;28;20212;-59
2021/06/25 01:53:56;;;;;;;9.50;6.77;;;;;;;-144.99;80.47;52307.47;5086410;28;20207;-59
2021/06/25 01:56:24;;;;;;;7.93;5.90;;;;;;;-144.99;80.99;52297.25;5089339;28;20230;-58
2021/06/25 01:58:51;;;;;;;8.73;6.23;;;;;;;-144.99;81.27;52303.38;5089527;28;20697;-59
2021/06/25 02:01:18;;;;;;;8.97;6.70;;;;;;;-144.99;81.53;52342.09;5089569;28;20310;-59
2021/06/25 02:03:47;;;;;;;11.27;6.87;;;;;;;-144.99;81.88;52358.41;5089781;28;20222;-59
2021/06/25 02:06:14;;;;;;;8.70;6.73;;;;;;;-144.99;82.02;52366.56;5088981;28;20256;-59
2021/06/25 02:08:43;;;;;;;9.50;6.57;;;;;;;-144.99;82.09;52297.25;5089600;28;20320;-59
2021/06/25 02:11:11;;;;;;;10.10;6.67;;;;;;;-144.99;82.22;52313.56;5089736;28;20208;-59
2021/06/25 02:13:39;;;;;;;9.57;6.47;;;;;;;-144.99;82.27;52346.19;5085691;28;20208;-59
2021/06/25 02:16:06;;;;;;;8.07;6.03;;;;;;;-144.99;82.41;52303.38;5089157;28;20259;-59
2021/06/25 02:18:33;;;;;;;9.73;6.90;;;;;;;-144.99;82.63;52321.72;5089642;28;20228;-59
2021/06/25 02:20:59;;;;;;;7.57;5.63;;;;;;;-144.99;82.48;52319.69;5086978;28;20685;-59
2021/06/25 02:23:26;;;;;;;8.87;6.57;;;;;;;-144.99;82.67;52305.41;5089502;28;20259;-59
2021/06/25 02:25:53;;;;;;;9.10;6.13;;;;;;;-144.99;82.82;52338.03;5089214;28;20204;-59
2021/06/25 02:28:20;;;;;;;8.93;6.20;;;;;;;-144.99;82.97;52309.50;5089010;28;20232;-59
2021/06/25 02:30:48;;;;;;;11.80;7.10;;;;;;;-144.99;83.23;52301.34;5089533;28;20561;-59
2021/06/25 02:33:14;;;;;;;7.60;5.97;;;;;;;-144.99;83.37;52321.72;5091296;28;20214;-58
2021/06/25 02:35:41;;;;;;;8.10;4.90;;;;;;;-144.99;83.34;52321.72;5089362;28;20227;-58
2021/06/25 02:38:08;;;;;;;9.20;5.63;;;;;;;-144.99;83.29;52321.72;5088974;28;20763;-59
2021/06/25 02:40:34;;;;;;;7.97;5.03;;;;;;;-144.99;82.96;52285.03;5089135;28;20211;-59
2021/06/25 02:43:01;;;;;;;10.67;5.23;;;;;;;-144.99;82.80;52317.66;5089630;28;20434;-59
2021/06/25 02:45:27;;;;;;;11.57;4.97;;;;;;;-144.99;82.44;52354.34;5089206;28;20208;-59
2021/06/25 02:47:55;;;;;;;9.90;6.63;;;;;;;-144.99;82.37;52305.41;5089024;28;20212;-59
2021/06/25 02:50:22;;;;;;;8.73;6.07;;;;;;;-144.99;82.40;52301.34;5089161;28;20239;-59
2021/06/25 02:52:48;;;;;;;11.37;6.17;;;;;;;-144.99;82.41;52321.72;5084169;28;20215;-59
2021/06/25 02:55:15;;;;;;;8.87;6.70;;;;;;;-144.99;82.40;52317.66;5091002;28;20224;-59
2021/06/25 02:57:42;;;;;;;8.50;6.37;;;;;;;-144.99;82.05;52321.72;5093677;28;20212;-59
2021/06/25 03:00:12;;;;;;;9.37;5.87;;;;;;;-144.99;82.13;52289.13;5093167;28;20242;-59
2021/06/25 03:02:39;;;;;;;8.47;6.00;;;;;;;-144.99;81.88;52329.88;5093378;28;20208;-59
2021/06/25 03:05:09;;;;;;;12.07;6.47;;;;;;;-144.99;81.94;52350.25;5092866;28;20558;-59
2021/06/25 03:07:36;;;;;;;8.83;5.93;;;;;;;-144.99;82.14;52297.25;5092667;28;20587;-59
2021/06/25 03:10:04;;;;;;;9.67;5.67;;;;;;;-144.99;82.11;52321.72;5092739;28;20232;-59
2021/06/25 03:12:31;;;;;;;7.20;5.20;;;;;;;-144.99;82.05;52289.13;5093079;28;20212;-59
2021/06/25 03:14:58;;;;;;;11.40;6.67;;;;;;;-144.99;82.37;52285.03;5093280;28;20200;-59
2021/06/25 03:17:24;;;;;;;8.97;6.00;;;;;;;-144.99;82.39;52293.19;5092099;28;20277;-59
2021/06/25 03:19:51;;;;;;;7.67;6.37;;;;;;;-144.99;82.25;52329.88;5089883;28;20236;-59
2021/06/25 03:22:19;;;;;;;10.07;5.70;;;;;;;-144.99;82.15;52293.19;5091565;28;20211;-59
2021/06/25 03:24:46;;;;;;;11.43;8.73;;;;;;;-144.99;82.28;52325.81;5092779;28;20208;-59
2021/06/25 03:27:13;;;;;;;8.53;5.83;;;;;;;-144.99;82.15;52313.56;5092832;28;20205;-59
2021/06/25 03:29:39;;;;;;;7.03;5.10;;;;;;;-144.99;82.38;52295.22;5092599;28;20227;-59
2021/06/25 03:32:07;;;;;;;9.83;6.47;;;;;;;-144.99;82.51;52297.25;5092537;28;20223;-59
2021/06/25 03:34:34;;;;;;;11.47;6.50;;;;;;;-144.99;82.69;52297.25;5093023;28;20247;-59
2021/06/25 03:37:00;;;;;;;11.10;6.53;;;;;;;-144.99;82.60;52276.88;5091711;28;20232;-59
2021/06/25 03:39:28;;;;;;;10.43;6.57;;;;;;;-144.99;82.74;52305.41;5092197;28;20228;-59
2021/06/25 03:41:55;;;;;;;9.50;5.87;;;;;;;-144.99;82.67;52305.41;5092622;28;20239;-59
2021/06/25 03:44:21;;;;;;;8.83;7.33;;;;;;;-144.99;82.64;52264.66;5092667;28;20216;-59
2021/06/25 03:46:48;;;;;;;7.50;5.60;;;;;;;-144.99;82.97;52280.97;5092272;28;20203;-59
2021/06/25 03:49:14;;;;;;;9.30;6.87;;;;;;;-144.99;83.00;52325.81;5091845;28;20243;-59
2021/06/25 03:51:41;;;;;;;9.27;6.33;;;;;;;-144.99;82.99;52285.03;5089875;28;20301;-59
2021/06/25 03:54:08;;;;;;;11.93;7.30;;;;;;;-144.99;82.87;52313.56;5088620;28;20196;-59
2021/06/25 03:56:35;;;;;;;10.97;6.40;;;;;;;-144.99;82.97;52285.03;5091997;28;20426;-60
2021/06/25 03:59:02;;;;;;;8.37;6.63;;;;;;;-144.99;82.97;52289.13;5092079;28;20243;-59
2021/06/25 04:01:29;;;;;;;7.43;5.53;;;;;;;-144.99;83.04;52305.41;5091950;28;20220;-59
2021/06/25 04:03:55;;;;;;;6.40;5.23;;;;;;;-144.99;83.01;52299.31;5092285;28;20219;-59
2021/06/25 04:06:22;;;;;;;9.90;8.90;;;;;;;-144.99;82.85;52297.25;5090489;28;20208;-59
2021/06/25 04:08:49;;;;;;;11.77;6.60;;;;;;;-144.99;82.83;52297.25;5091623;28;20243;-59
2021/06/25 04:11:17;;;;;;;9.90;6.93;;;;;;;-144.99;82.81;52280.97;5092053;28;20207;-59
2021/06/25 04:13:45;;;;;;;10.97;7.70;;;;;;;-144.99;83.02;52287.06;5091798;28;20211;-59
2021/06/25 04:16:12;;;;;;;9.43;7.57;;;;;;;-144.99;83.50;52297.25;5090788;28;20220;-59
2021/06/25 04:18:38;;;;;;;16.43;13.00;;;;;;;-144.99;84.19;52317.66;5088395;28;20697;-59
2021/06/25 04:21:06;;;;;;;10.53;8.60;;;;;;;-144.99;84.35;52276.88;5089293;28;20200;-60
2021/06/25 04:23:32;;;;;;;10.20;7.57;;;;;;;-144.99;84.52;52309.50;5091556;28;20219;-59
2021/06/25 04:25:59;;;;;;;11.17;7.43;;;;;;;-144.99;84.70;52293.19;5092160;28;20204;-60
2021/06/25 04:28:26;;;;;;;9.53;6.50;;;;;;;-144.99;84.63;52276.88;5091831;28;20220;-59
2021/06/25 04:30:54;;;;;;;12.13;7.20;;;;;;;-144.99;84.44;52256.50;5090309;28;20204;-59
2021/06/25 04:33:20;;;;;;;11.63;8.53;;;;;;;-144.99;84.38;52301.34;5091775;28;20206;-60
2021/06/25 04:35:50;;;;;;;10.50;7.47;;;;;;;-144.99;84.12;52309.50;5091405;28;20228;-60
2021/06/25 04:38:16;;;;;;;13.07;8.40;;;;;;;-144.99;83.98;52289.13;5091592;28;20239;-60
2021/06/25 04:40:44;;;;;;;10.77;7.37;;;;;;;-144.99;83.75;52280.97;5091601;28;20212;-59
2021/06/25 04:43:12;;;;;;;11.23;9.23;;;;;;;-144.99;83.70;52264.66;5090994;28;20582;-58
2021/06/25 04:45:40;;;;;;;12.17;7.37;;;;;;;-144.99;83.90;52244.28;5091333;28;20212;-59
2021/06/25 04:48:11;;;;;;;10.63;6.57;;;;;;;-144.99;83.78;52313.56;5091524;28;20572;-60
2021/06/25 04:50:38;;;;;;;11.37;8.77;;;;;;;-144.99;83.90;52260.56;5090809;28;20216;-59
2021/06/25 04:53:04;;;;;;;10.23;9.00;;;;;;;-144.99;83.86;52270.78;5086083;28;20212;-59
2021/06/25 04:55:40;;;;;;;16.43;10.83;;;;;;;-144.99;83.87;52278.91;5090974;28;20204;-59
2021/06/25 04:58:07;;;;;;;8.77;7.67;;;;;;;-144.99;83.54;52254.47;5090842;28;20667;-60
2021/06/25 05:00:37;;;;;;;8.83;7.60;;;;;;;-144.99;83.39;52285.03;5090572;28;20222;-59
2021/06/25 05:03:04;;;;;;;15.70;8.47;;;;;;;-144.99;83.03;52285.03;5090862;28;20207;-60
2021/06/25 05:05:32;;;;;;;9.43;7.53;;;;;;;-144.99;82.87;52280.97;5091000;28;20223;-60
2021/06/25 05:07:58;;;;;;;13.00;8.60;;;;;;;-144.99;82.58;52305.41;5091014;28;20216;-58
2021/06/25 05:10:25;;;;;;;13.40;8.50;;;;;;;-144.99;82.28;52236.13;5089978;28;20212;-60
2021/06/25 05:12:51;;;;;;;13.30;9.00;;;;;;;-144.99;82.18;52240.19;5090885;28;20200;-57
2021/06/25 05:15:20;;;;;;;11.10;9.70;;;;;;;-144.99;81.75;52276.88;5090698;28;20235;-59
2021/06/25 05:17:46;;;;;;;12.00;7.67;;;;;;;-144.99;81.65;52268.72;5089464;28;20257;-60
2021/06/25 05:20:14;;;;;;;13.53;9.07;;;;;;;-144.99;80.84;52285.03;5087590;28;20228;-60
2021/06/25 05:22:42;;;;;;;18.07;8.07;;;;;;;-144.99;80.74;52280.97;5089758;28;20200;-60
2021/06/25 05:25:09;;;;;;;9.40;7.47;;;;;;;-144.99;80.11;52240.19;5090471;28;20212;-60
2021/06/25 05:30:15;;;;;;;9.37;7.80;;;;;;;-144.99;78.60;52268.72;5066931;28;20694;-62
2021/06/25 05:32:42;;;;;;;9.47;6.17;;;;;;;-144.99;78.36;52232.03;5071137;28;20214;-62
2021/06/25 05:35:10;;;;;;;13.00;6.73;;;;;;;-144.99;77.85;52258.53;5070802;28;20223;-62
2021/06/25 05:37:36;;;;;;;13.50;6.10;;;;;;;-144.99;77.00;52252.44;5070127;28;20711;-62
2021/06/25 05:40:06;;;;;;;9.53;7.20;;;;;;;-144.99;76.80;52240.19;5070152;28;20242;-62
2021/06/25 05:42:32;;;;;;;10.23;6.73;;;;;;;-144.99;76.45;52236.13;5069584;28;20622;-62
2021/06/25 05:44:59;;;;;;;11.37;5.87;;;;;;;-144.99;76.21;52236.13;5069848;28;20207;-62
2021/06/25 05:47:25;;;;;;;10.43;6.40;;;;;;;-144.99;75.49;52276.88;5069325;28;20208;-62
2021/06/25 05:49:52;;;;;;;8.03;5.43;;;;;;;-144.99;75.51;52264.66;5068563;28;20321;-62
2021/06/25 05:52:18;;;;;;;8.83;7.03;;;;;;;-144.99;74.98;52264.66;5069565;28;20214;-63
2021/06/25 05:54:45;;;;;;;6.53;5.50;;;;;;;-144.99;74.89;52252.44;5069385;28;20196;-62
2021/06/25 05:57:13;;;;;;;9.10;7.03;;;;;;;-144.99;74.09;52260.56;5069626;28;20320;-62
2021/06/25 05:59:39;;;;;;;40.33;10.40;;;;;;;-144.99;73.78;52260.56;5069625;28;20230;-62
2021/06/25 06:02:06;;;;;;;9.10;6.97;;;;;;;-144.99;73.45;52240.19;5069769;28;20220;-63
2021/06/25 06:04:33;;;;;;;9.87;6.70;;;;;;;-144.99;73.18;52240.19;5069586;28;20213;-63
2021/06/25 06:07:01;;;;;;;10.77;6.53;;;;;;;-144.99;72.84;52252.44;5069911;28;20207;-63
2021/06/25 06:09:27;;;;;;;8.57;5.97;;;;;;;-144.99;72.39;52244.28;5069957;28;20224;-63
2021/06/25 06:11:54;;;;;;;8.97;6.67;;;;;;;-144.99;71.83;52203.50;5070919;28;20223;-61
2021/06/25 06:14:22;;;;;;;9.30;6.83;;;;;;;-144.99;71.27;52203.50;5069365;28;20201;-63
2021/06/25 06:16:49;;;;;;;10.33;7.03;;;;;;;-144.99;70.58;52195.34;5068525;28;20490;-62
2021/06/25 06:19:16;;;;;;;10.37;6.13;;;;;;;-144.99;69.79;52223.88;5069340;28;20258;-62
2021/06/25 06:32:47;;;;;;;9.70;6.13;;;;;;;-144.99;68.13;52225.94;5068839;28;20649;-62
2021/06/25 06:35:19;;;;;;;7.00;5.03;;;;;;;-144.99;66.80;52238.16;5069030;28;20213;-62
2021/06/25 06:37:50;;;;;;;9.00;4.53;;;;;;;-144.99;65.32;52219.81;5063855;28;20224;-61
2021/06/25 06:40:20;;;;;;;7.97;4.50;;;;;;;-144.99;65.39;52219.81;5068632;28;20287;-62
2021/06/25 06:42:47;;;;;;;8.20;4.50;;;;;;;-144.99;65.05;52195.34;5069666;28;20205;-63
2021/06/25 06:45:17;;;;;;;10.83;4.33;;;;;;;-144.99;63.48;52236.13;5069177;28;20216;-62
2021/06/25 06:47:47;;;;;;;6.33;3.10;;;;;;;-144.99;62.38;52201.47;5069129;28;20279;-62
2021/06/25 06:50:14;;;;;;;6.13;4.20;;;;;;;-144.99;61.63;52219.81;5068754;28;20278;-63
2021/06/25 06:52:46;;;;;;;9.27;4.13;;;;;;;-144.99;59.22;52185.16;5068385;28;20216;-63
2021/06/25 06:55:16;;;;;;;7.93;3.87;;;;;;;-144.99;58.65;52205.53;5065186;28;20261;-63
2021/06/25 06:57:43;;;;;;;7.80;3.23;;;;;;;-144.99;58.45;52223.88;5068586;28;20601;-62
2021/06/25 07:00:11;;;;;;;7.77;4.30;;;;;;;-144.99;57.51;52203.50;5068297;28;20587;-62
2021/06/25 07:02:42;;;;;;;6.53;4.10;;;;;;;-144.99;57.13;52238.16;5068663;28;20721;-63
2021/06/25 07:05:12;;;;;;;6.20;4.20;;;;;;;-144.99;57.69;52223.88;5068934;28;20213;-63
2021/06/25 07:07:39;;;;;;;8.53;3.53;;;;;;;-144.99;57.72;52203.50;5069125;28;20220;-63
2021/06/25 07:10:08;;;;;;;9.23;3.70;;;;;;;-144.99;57.69;52223.88;5067968;28;20560;-63
2021/06/25 07:12:35;;;;;;;6.73;3.47;;;;;;;-144.99;58.14;52207.59;5069400;28;20209;-62
2021/06/25 07:15:01;;;;;;;4.60;3.40;;;;;;;-144.99;58.13;52223.88;5069372;28;20591;-63
2021/06/25 07:17:28;;;;;;;6.20;3.87;;;;;;;-144.99;57.59;52219.81;5068526;28;20469;-63
2021/06/25 07:19:56;;;;;;;5.27;3.53;;;;;;;-144.99;57.36;52219.81;5068477;28;20245;-62
2021/06/25 07:22:22;;;;;;;7.13;3.47;;;;;;;-144.99;57.40;52203.50;5066694;28;22408;-63
2021/06/25 07:24:50;;;;;;;4.90;2.80;;;;;;;-144.99;57.51;52211.66;5069073;28;20213;-63
2021/06/25 07:27:17;;;;;;;4.17;2.87;;;;;;;-144.99;57.79;52215.75;5068791;28;20683;-64
2021/06/25 07:29:44;;;;;;;8.30;4.60;;;;;;;-144.99;56.42;52203.50;5068962;28;20249;-62
2021/06/25 07:32:10;;;;;;;6.93;3.40;;;;;;;-144.99;52.97;52223.88;5070497;28;20206;-63
2021/06/25 07:34:39;;;;;;;7.47;3.10;;;;;;;-144.99;53.06;52207.59;5069057;28;20775;-63
2021/06/25 07:37:08;;;;;;;4.80;2.97;;;;;;;-144.99;52.92;52215.75;5069041;28;20225;-63
2021/06/25 07:39:37;;;;;;;6.23;3.07;;;;;;;-144.99;52.50;52199.44;5069382;28;20241;-62
2021/06/25 07:42:05;;;;;;;3.70;2.50;;;;;;;-144.99;52.93;52177.00;5070162;28;20215;-63
2021/06/25 07:44:31;;;;;;;4.63;2.80;;;;;;;-144.99;53.17;52227.97;5072917;28;20215;-63
2021/06/25 07:46:58;;;;;;;8.20;2.70;;;;;;;-144.99;52.99;52236.13;5072153;28;20242;-63
2021/06/25 07:49:27;;;;;;;8.40;2.50;;;;;;;-144.99;52.38;52213.69;5071251;28;20245;-63
2021/06/25 07:51:56;;;;;;;6.37;4.53;;;;;;;-144.99;51.43;52185.16;5071423;28;20205;-63
2021/06/25 07:54:24;;;;;;;12.17;3.70;;;;;;;-144.99;52.10;52232.03;5072896;28;20215;-62
2021/06/25 07:56:50;;;;;;;5.37;4.03;;;;;;;-144.99;52.23;52223.88;5071833;28;20703;-63
2021/06/25 07:59:17;;;;;;;4.63;3.17;;;;;;;-144.99;52.15;52236.13;5071733;28;20254;-63
2021/06/25 08:01:44;;;;;;;5.27;3.60;;;;;;;-144.99;52.20;52203.50;5071567;28;20586;-63
2021/06/25 08:04:11;;;;;;;5.70;4.17;;;;;;;-144.99;52.68;52207.59;5072762;28;20577;-63
2021/06/25 08:06:37;;;;;;;5.43;3.30;;;;;;;-144.99;52.62;52211.66;5073496;28;20206;-64
2021/06/25 08:09:07;;;;;;;5.73;3.80;;;;;;;-144.99;52.79;52240.19;5071554;28;20463;-62
2021/06/25 08:11:36;;;;;;;6.03;3.93;;;;;;;-144.99;52.40;52195.34;5071687;28;20295;-62
2021/06/25 08:14:03;;;;;;;8.00;4.53;;;;;;;-144.99;52.13;52197.41;5071437;28;20207;-63
2021/06/25 08:16:30;;;;;;;8.87;4.10;;;;;;;-144.99;51.48;52211.66;5070980;28;20214;-63
2021/06/25 08:19:00;;;;;;;4.47;3.60;;;;;;;-144.99;51.86;52195.34;5071059;28;20268;-62
2021/06/25 08:21:31;;;;;;;4.10;3.13;;;;;;;-144.99;51.73;52191.28;5071006;28;20207;-63
2021/06/25 08:23:58;;;;;;;7.97;3.20;;;;;;;-144.99;52.10;52211.66;5067413;28;20211;-62
2021/06/25 08:26:25;;;;;;;4.97;3.80;;;;;;;-144.99;51.29;52195.34;5071318;28;20211;-63
2021/06/25 08:28:54;;;;;;;6.50;4.53;;;;;;;-144.99;50.92;52211.66;5070783;28;20244;-63
2021/06/25 08:31:23;;;;;;;5.13;2.93;;;;;;;-144.99;50.94;52179.06;5066439;28;20305;-64
2021/06/25 08:33:50;;;;;;;6.00;4.57;;;;;;;-144.99;50.73;52179.06;5070858;28;20227;-61
2021/06/25 08:36:19;;;;;;;6.67;4.67;;;;;;;-144.99;49.87;52162.75;5070545;28;20209;-63
2021/06/25 08:38:48;;;;;;;10.33;4.77;;;;;;;-144.99;50.20;52170.91;5070812;28;20239;-63
2021/06/25 08:41:14;;;;;;;5.83;4.70;;;;;;;-144.99;49.37;52174.97;5070838;28;20810;-63
2021/06/25 08:43:44;;;;;;;5.00;4.23;;;;;;;-144.99;48.86;52164.78;5071059;28;20674;-63
2021/06/25 08:46:12;;;;;;;4.63;3.43;;;;;;;-144.99;48.42;52132.19;5070790;28;20611;-63
2021/06/25 08:48:40;;;;;;;7.07;4.73;;;;;;;-144.99;49.11;52146.44;5071337;28;20221;-63
2021/06/25 08:51:09;;;;;;;7.87;4.73;;;;;;;-144.99;48.24;52146.44;5070640;28;20651;-63
2021/06/25 08:53:36;;;;;;;5.30;4.67;;;;;;;-144.99;48.87;52146.44;5071371;28;20258;-63
2021/06/25 08:56:03;;;;;;;8.37;5.63;;;;;;;-144.99;47.46;52126.06;5070632;28;20675;-64
2021/06/25 08:58:29;;;;;;;5.47;4.40;;;;;;;-144.99;48.83;52195.34;5070172;28;20240;-64
2021/06/25 09:00:59;;;;;;;8.87;3.97;;;;;;;-144.99;49.49;52150.53;5070920;28;20675;-64
2021/06/25 09:03:28;;;;;;;6.57;4.47;;;;;;;-144.99;48.54;52179.06;5070783;28;20240;-63
2021/06/25 09:06:09;;;;;;;5.93;4.43;;;;;;;-144.99;48.68;52154.59;5070403;28;20240;-63
2021/06/25 09:08:36;;;;;;;8.33;6.27;;;;;;;-144.99;48.08;52181.09;5070217;28;20226;-63
2021/06/25 09:11:19;;;;;;;5.77;3.93;;;;;;;-144.99;48.04;52166.81;5070107;28;20209;-64
2021/06/25 09:13:45;;;;;;;7.37;3.70;;;;;;;-144.99;48.08;52134.22;5070705;28;20206;-64
2021/06/25 09:16:23;;;;;;;7.70;5.37;;;;;;;-144.99;47.24;52154.59;5069851;28;20210;-62
2021/06/25 09:19:13;;;;;;;5.90;4.03;;;;;;;-144.99;48.01;52138.28;5070185;28;20244;-63
2021/06/25 09:21:42;;;;;;;6.47;4.67;;;;;;;-144.99;47.46;52179.06;5069984;28;20466;-62
2021/06/25 09:24:18;;;;;;;8.63;6.10;;;;;;;-144.99;48.82;52162.75;5069908;28;20319;-62
2021/06/25 09:26:47;;;;;;;7.77;6.07;;;;;;;-144.99;48.75;52187.19;5070075;28;20217;-63
2021/06/25 09:29:20;;;;;;;9.33;6.27;;;;;;;-144.99;49.08;52170.91;5069614;28;20233;-62
2021/06/25 09:31:56;;;;;;;6.13;5.47;;;;;;;-144.99;49.13;52170.91;5070457;28;20374;-62
2021/06/25 09:34:34;;;;;;;6.90;5.43;;;;;;;-144.99;48.86;52215.75;5070255;28;20289;-63
2021/06/25 09:37:01;;;;;;;5.57;4.53;;;;;;;-144.99;49.09;52240.19;5070331;28;20224;-63
2021/06/25 09:39:28;;;;;;;7.90;5.00;;;;;;;-144.99;48.88;52164.78;5070923;28;20232;-63
2021/06/25 09:41:54;;;;;;;5.87;3.73;;;;;;;-144.99;49.06;52126.06;5072794;28;20231;-63
2021/06/25 09:44:24;;;;;;;7.57;5.87;;;;;;;-144.99;48.29;52119.94;5072206;28;20213;-64
2021/06/25 09:46:55;;;;;;;11.03;5.33;;;;;;;-144.99;48.15;52158.66;5071515;28;20212;-63
2021/06/25 09:49:28;;;;;;;9.37;6.23;;;;;;;-144.99;48.56;52170.91;5070543;28;20233;-63
2021/06/25 09:51:58;;;;;;;10.13;6.27;;;;;;;-144.99;47.98;52172.94;5070614;28;20216;-63
2021/06/25 09:54:25;;;;;;;10.67;5.97;;;;;;;-144.99;48.75;52166.81;5070619;28;20291;-63
2021/06/25 09:57:04;;;;;;;7.27;5.63;;;;;;;-144.99;48.86;52170.91;5072082;28;20277;-64
2021/06/25 09:59:35;;;;;;;7.07;5.57;;;;;;;-144.99;49.08;52166.81;5071993;28;20928;-64
2021/06/25 10:02:28;;;;;;;13.57;4.73;;;;;;;-144.99;48.96;52199.44;5071557;28;20251;-63
2021/06/25 10:04:56;;;;;;;8.27;4.67;;;;;;;-144.99;48.37;52154.59;5071793;28;20236;-62
2021/06/25 10:07:26;;;;;;;12.10;4.60;;;;;;;-144.99;47.86;52174.97;5071300;28;20206;-62
2021/06/25 10:09:56;;;;;;;7.23;4.20;;;;;;;-144.99;47.68;52146.44;5073975;28;20812;-65
2021/06/25 10:12:24;;;;;;;8.77;4.73;;;;;;;-144.99;48.35;52117.91;5076569;28;20209;-63
2021/06/25 10:14:52;;;;;;;5.70;4.47;;;;;;;-144.99;47.35;52146.44;5071524;28;20413;-64
2021/06/25 10:17:19;;;;;;;4.30;3.13;;;;;;;-144.99;47.37;52152.56;5069059;28;20210;-64
2021/06/25 10:19:47;;;;;;;11.20;5.20;;;;;;;-144.99;46.75;52132.19;5068845;28;20234;-63
2021/06/25 10:22:16;;;;;;;7.33;4.93;;;;;;;-144.99;46.73;52138.28;5068486;28;20801;-63
2021/06/25 10:24:48;;;;;;;8.37;6.10;;;;;;;-144.99;47.14;52126.06;5069210;28;20214;-63
2021/06/25 10:27:18;;;;;;;7.97;4.90;;;;;;;-144.99;47.64;52105.69;5069865;28;20615;-63
2021/06/25 10:29:45;;;;;;;8.17;4.93;;;;;;;-144.99;47.52;52150.53;5071033;28;20727;-63
2021/06/25 10:32:12;;;;;;;7.97;4.90;;;;;;;-144.99;46.77;52174.97;5071797;28;20216;-64
2021/06/25 10:34:40;;;;;;;6.33;5.13;;;;;;;-144.99;46.51;52130.13;5069234;28;20686;-63
2021/06/25 10:37:09;;;;;;;8.90;4.80;;;;;;;-144.99;46.60;52130.13;5069099;28;20214;-63
2021/06/25 10:39:36;;;;;;;5.37;4.43;;;;;;;-144.99;46.59;52146.44;5068435;28;20249;-63
2021/06/25 10:42:09;;;;;;;4.33;2.80;;;;;;;-144.99;44.93;52103.66;5069416;28;20213;-64
2021/06/25 10:44:40;;;;;;;8.07;4.97;;;;;;;-144.99;45.27;52117.91;5070207;28;20251;-63
2021/06/25 10:47:15;;;;;;;6.10;4.63;;;;;;;-144.99;45.12;52038.44;5071031;28;20216;-64
2021/06/25 10:50:18;;;;;;;7.23;4.77;;;;;;;-144.99;44.89;52026.19;5069080;28;20238;-65
2021/06/25 10:53:28;;;;;;;5.43;4.30;;;;;;;-144.99;44.24;52056.78;5055302;28;20204;-63
2021/06/25 10:56:04;;;;;;;4.90;3.63;;;;;;;-144.99;44.27;52060.84;5068758;28;20272;-63
2021/06/25 10:58:33;;;;;;;7.17;4.17;;;;;;;-144.99;43.22;52064.91;5068765;28;20690;-63
2021/06/25 11:01:02;;;;;;;8.27;3.60;;;;;;;-144.99;42.15;52073.06;5069237;28;20215;-63
2021/06/25 11:03:36;;;;;;;6.23;3.00;;;;;;;-144.99;42.77;52089.38;5069055;28;20213;-64
2021/06/25 11:06:03;;;;;;;5.67;4.00;;;;;;;-144.99;43.24;52081.22;5069221;28;20254;-64
2021/06/25 11:08:29;;;;;;;5.27;3.53;;;;;;;-144.99;43.32;52093.44;5070178;28;20347;-64
2021/06/25 11:10:57;;;;;;;4.47;3.80;;;;;;;-144.99;43.67;52034.34;5070971;28;20635;-64
2021/06/25 11:13:27;;;;;;;5.73;4.77;;;;;;;-144.99;42.65;52048.63;5069193;28;20256;-63
2021/06/25 11:15:57;;;;;;;4.53;3.53;;;;;;;-144.99;41.29;52011.94;5070353;28;20208;-64
2021/06/25 11:18:25;;;;;;;5.03;3.73;;;;;;;-144.99;41.79;52040.47;5072340;28;20240;-63
2021/06/25 11:20:54;;;;;;;4.10;3.07;;;;;;;-144.99;41.50;52048.63;5072090;28;20313;-63
2021/06/25 11:23:23;;;;;;;8.73;4.47;;;;;;;-144.99;40.84;52044.53;5073326;28;20212;-64
2021/06/25 11:25:52;;;;;;;5.27;3.50;;;;;;;-144.99;40.92;52103.66;5072785;28;20212;-64
2021/06/25 11:28:40;;;;;;;6.80;3.77;;;;;;;-144.99;41.52;51995.63;5073067;28;20246;-63
2021/06/25 11:31:27;;;;;;;5.57;3.40;;;;;;;-144.99;41.41;52044.53;5072695;28;20208;-64
2021/06/25 11:33:57;;;;;;;4.47;2.63;;;;;;;-144.99;40.98;51979.31;5073320;28;20225;-64